createdAt,value
2022-08-20T00:01:02.288Z,99999.63
2022-08-20T00:02:05.289Z,100002.44
2022-08-20T00:03:14.145Z,99996.00
2022-08-20T00:04:16.463Z,99989.56
2022-08-20T00:05:27.824Z,99992.38
2022-08-20T00:06:30.107Z,99993.53
2022-08-20T00:07:32.330Z,99991.53
2022-08-20T00:08:34.884Z,99991.88
2022-08-20T00:09:37.247Z,99992.72
2022-08-20T00:10:42.064Z,99996.34
2022-08-20T00:11:44.246Z,99993.88
2022-08-20T00:12:49.260Z,99993.03
2022-08-20T00:13:55.094Z,99994.22
2022-08-20T00:14:57.343Z,99991.72
2022-08-20T00:16:00.210Z,99988.91
2022-08-20T00:17:04.246Z,99990.56
2022-08-20T00:18:07.666Z,99979.69
2022-08-20T00:19:10.228Z,99982.84
2022-08-20T00:20:13.937Z,99975.22
2022-08-20T00:21:19.033Z,99977.56
2022-08-20T00:22:21.876Z,99977.56
2022-08-20T00:23:25.053Z,99977.56
2022-08-20T00:24:27.263Z,99970.31
2022-08-20T00:25:29.779Z,99982.84
2022-08-20T00:26:32.066Z,99979.53
2022-08-20T00:27:34.298Z,99974.75
2022-08-20T00:28:37.021Z,99975.91
2022-08-20T00:29:39.260Z,99971.13
2022-08-20T00:30:44.729Z,99976.72
2022-08-20T00:31:46.964Z,99980.69
2022-08-20T00:33:00.375Z,99982.69
2022-08-20T00:34:02.694Z,99979.53
2022-08-20T00:35:05.252Z,99981.88
2022-08-20T00:36:10.831Z,99981.88
2022-08-20T00:37:13.102Z,99988.31
2022-08-20T00:38:15.682Z,99986.66
2022-08-20T00:39:17.948Z,99989.47
2022-08-20T00:40:31.074Z,99982.22
2022-08-20T00:41:33.311Z,99984.19
2022-08-20T00:42:51.036Z,99977.78
2022-08-20T00:44:19.222Z,99985.03
2022-08-20T00:45:21.697Z,99987.00
2022-08-20T00:46:30.899Z,99989.00
2022-08-20T00:47:34.389Z,99985.34
2022-08-20T00:48:39.951Z,99987.00
2022-08-20T00:49:42.194Z,99991.81
2022-08-20T00:50:45.681Z,99991.81
2022-08-20T00:51:53.546Z,99992.16
2022-08-20T00:52:56.190Z,99992.97
2022-08-20T00:54:17.006Z,99992.97
2022-08-20T00:55:24.399Z,99981.75
2022-08-20T00:56:30.712Z,99987.34
2022-08-20T00:57:53.301Z,99980.94
2022-08-20T00:59:01.992Z,99984.91
2022-08-20T01:00:11.721Z,99984.06
2022-08-20T01:01:15.854Z,99980.09
2022-08-20T01:02:21.465Z,99983.25
2022-08-20T01:03:24.347Z,99988.84
2022-08-20T01:04:33.715Z,99988.03
2022-08-20T01:05:42.658Z,99990.84
2022-08-20T01:06:45.053Z,99986.41
2022-08-20T01:07:48.503Z,99990.00
2022-08-20T01:08:53.935Z,99984.75
2022-08-20T01:09:59.552Z,99988.38
2022-08-20T01:11:10.191Z,99979.13
2022-08-20T01:12:14.391Z,99988.72
2022-08-20T01:13:22.010Z,99983.09
2022-08-20T01:14:28.690Z,99991.06
2022-08-20T01:15:31.984Z,99991.06
2022-08-20T01:16:36.702Z,99989.41
2022-08-20T01:17:47.354Z,99988.56
2022-08-20T01:18:50.645Z,99984.13
2022-08-20T01:19:57.805Z,99984.13
2022-08-20T01:21:04.193Z,99990.91
2022-08-20T01:22:28.237Z,99984.81
2022-08-20T01:23:44.843Z,99982.00
2022-08-20T01:24:50.449Z,99986.78
2022-08-20T01:26:09.706Z,99988.75
2022-08-20T01:27:11.960Z,100003.63
2022-08-20T01:28:22.861Z,99996.38
2022-08-20T01:29:29.419Z,100000.34
2022-08-20T01:30:33.108Z,99993.06
2022-08-20T01:31:38.828Z,100000.69
2022-08-20T01:32:41.187Z,100001.03
2022-08-20T01:33:44.665Z,99991.75
2022-08-20T01:34:48.562Z,99996.56
2022-08-20T01:35:52.250Z,100001.38
2022-08-20T01:36:57.721Z,99994.91
2022-08-20T01:37:59.918Z,100003.34
2022-08-20T01:39:05.102Z,100006.50
2022-08-20T01:40:14.145Z,99994.44
2022-08-20T01:41:41.425Z,100005.69
2022-08-20T01:42:59.205Z,100004.03
2022-08-20T01:44:03.155Z,100001.56
2022-08-20T01:45:08.067Z,100000.72
2022-08-20T01:46:10.545Z,100002.72
2022-08-20T01:47:16.237Z,100005.53
2022-08-20T01:48:19.643Z,100000.25
2022-08-20T01:49:23.412Z,99997.44
2022-08-20T01:50:30.768Z,100005.38
2022-08-20T01:51:32.988Z,99999.75
2022-08-20T01:52:56.988Z,99996.50
2022-08-20T01:54:00.045Z,100002.09
2022-08-20T01:55:02.657Z,100006.06
2022-08-20T01:56:08.172Z,100006.88
2022-08-20T01:57:13.923Z,100004.41
2022-08-20T01:58:17.221Z,100006.41
2022-08-20T01:59:19.535Z,100003.91
2022-08-20T02:00:22.946Z,100008.38
2022-08-20T02:01:27.597Z,100011.88
2022-08-20T02:02:29.831Z,100003.44
2022-08-20T02:03:37.392Z,100006.25
2022-08-20T02:04:41.795Z,100009.88
2022-08-20T02:05:44.171Z,100003.78
2022-08-20T02:06:56.567Z,100003.78
2022-08-20T02:08:00.334Z,100009.69
2022-08-20T02:09:04.837Z,100005.72
2022-08-20T02:10:11.149Z,100008.53
2022-08-20T02:11:13.731Z,100006.88
2022-08-20T02:12:17.747Z,100008.88
2022-08-20T02:13:21.040Z,100006.41
2022-08-20T02:14:23.679Z,100002.81
2022-08-20T02:15:34.416Z,100001.16
2022-08-20T02:16:41.746Z,100003.94
2022-08-20T02:17:44.034Z,100002.31
2022-08-20T02:18:46.993Z,99999.84
2022-08-20T02:19:57.025Z,100002.63
2022-08-20T02:20:59.877Z,99999.00
2022-08-20T02:22:07.215Z,100001.81
2022-08-20T02:23:10.186Z,100006.59
2022-08-20T02:24:13.054Z,100007.75
2022-08-20T02:25:17.636Z,100007.75
2022-08-20T02:26:19.921Z,100010.09
2022-08-20T02:27:24.435Z,100002.84
2022-08-20T02:28:27.838Z,100009.59
2022-08-20T02:29:30.131Z,100009.59
2022-08-20T02:30:36.286Z,100010.75
2022-08-20T02:31:43.595Z,100013.91
2022-08-20T02:33:04.493Z,100009.44
2022-08-20T02:34:21.738Z,100008.63
2022-08-20T02:35:25.700Z,100010.59
2022-08-20T02:36:28.003Z,100003.34
2022-08-20T02:37:30.550Z,100010.94
2022-08-20T02:38:35.506Z,100014.09
2022-08-20T02:39:37.803Z,100015.75
2022-08-20T02:40:40.102Z,100010.47
2022-08-20T02:41:42.466Z,100015.25
2022-08-20T02:42:47.239Z,100011.63
2022-08-20T02:43:51.336Z,100012.78
2022-08-20T02:44:54.634Z,100016.38
2022-08-20T02:45:56.934Z,100004.34
2022-08-20T02:47:00.361Z,100011.13
2022-08-20T02:48:04.133Z,100008.31
2022-08-20T02:49:06.422Z,100002.25
2022-08-20T02:50:14.387Z,100003.06
2022-08-20T02:51:16.708Z,100001.41
2022-08-20T02:52:19.108Z,100004.19
2022-08-20T02:53:22.681Z,100005.38
2022-08-20T02:54:24.857Z,99998.94
2022-08-20T02:55:28.222Z,100004.88
2022-08-20T02:56:30.646Z,100007.34
2022-08-20T02:57:40.621Z,100000.09
2022-08-20T02:58:43.196Z,100004.06
2022-08-20T02:59:45.444Z,100001.28
2022-08-20T03:00:48.801Z,99995.16
2022-08-20T03:02:00.191Z,99993.50
2022-08-20T03:03:04.565Z,99995.50
2022-08-20T03:04:06.805Z,99993.03
2022-08-20T03:05:09.523Z,100001.09
2022-08-20T03:06:14.085Z,99993.84
2022-08-20T03:07:16.408Z,99992.19
2022-08-20T03:08:26.261Z,99991.38
2022-08-20T03:09:28.508Z,99986.59
2022-08-20T03:10:34.062Z,99991.38
2022-08-20T03:11:36.585Z,99993.34
2022-08-20T03:12:39.124Z,99988.91
2022-08-20T03:13:41.296Z,99979.66
2022-08-20T03:14:44.175Z,99978.84
2022-08-20T03:15:58.764Z,99982.81
2022-08-20T03:17:01.567Z,99974.75
2022-08-20T03:18:03.866Z,99983.97
2022-08-20T03:19:06.034Z,99974.75
2022-08-20T03:20:08.958Z,99978.69
2022-08-20T03:21:14.636Z,99979.03
2022-08-20T03:22:17.165Z,99973.44
2022-08-20T03:23:21.103Z,99977.38
2022-08-20T03:24:23.307Z,99979.38
2022-08-20T03:25:25.617Z,99984.16
2022-08-20T03:26:29.155Z,99984.50
2022-08-20T03:27:33.013Z,99982.03
2022-08-20T03:28:39.379Z,99985.16
2022-08-20T03:29:41.576Z,99987.13
2022-08-20T03:30:44.397Z,99982.72
2022-08-20T03:31:48.854Z,99980.22
2022-08-20T03:32:51.949Z,99986.66
2022-08-20T03:33:54.222Z,99992.28
2022-08-20T03:34:56.478Z,99987.00
2022-08-20T03:35:58.933Z,99987.00
2022-08-20T03:37:01.190Z,99987.31
2022-08-20T03:38:08.216Z,99988.16
2022-08-20T03:39:13.490Z,99987.66
2022-08-20T03:40:24.071Z,99987.66
2022-08-20T03:41:26.669Z,99996.06
2022-08-20T03:42:29.032Z,99979.59
2022-08-20T03:43:31.824Z,99975.97
2022-08-20T03:44:34.837Z,99986.34
2022-08-20T03:45:39.562Z,99983.88
2022-08-20T03:46:41.809Z,99992.28
2022-08-20T03:47:44.132Z,99985.88
2022-08-20T03:48:46.522Z,99987.50
2022-08-20T03:49:51.281Z,99987.03
2022-08-20T03:50:53.660Z,99988.97
2022-08-20T03:51:58.466Z,99984.56
2022-08-20T03:53:01.494Z,99983.72
2022-08-20T03:54:03.745Z,99990.97
2022-08-20T03:55:08.537Z,99995.28
2022-08-20T03:56:11.391Z,99993.63
2022-08-20T03:57:16.147Z,99992.81
2022-08-20T03:58:19.540Z,99993.94
2022-08-20T03:59:23.686Z,99993.16
2022-08-20T04:00:31.228Z,99999.56
2022-08-20T04:01:46.174Z,99993.16
2022-08-20T04:02:49.245Z,100001.88
2022-08-20T04:03:55.141Z,99992.31
2022-08-20T04:04:57.500Z,99996.28
2022-08-20T04:05:59.916Z,99997.44
2022-08-20T04:07:13.895Z,100001.38
2022-08-20T04:08:20.111Z,100006.19
2022-08-20T04:09:22.546Z,100003.38
2022-08-20T04:10:25.558Z,100002.50
2022-08-20T04:11:27.753Z,99984.03
2022-08-20T04:12:30.004Z,100002.50
2022-08-20T04:13:32.343Z,100006.19
2022-08-20T04:14:36.737Z,99997.25
2022-08-20T04:15:40.204Z,100000.38
2022-08-20T04:16:43.281Z,100003.66
2022-08-20T04:17:48.200Z,100004.50
2022-08-20T04:19:01.335Z,99991.97
2022-08-20T04:20:07.509Z,99998.38
2022-08-20T04:21:11.566Z,100003.19
2022-08-20T04:22:14.349Z,100001.53
2022-08-20T04:23:16.815Z,100007.13
2022-08-20T04:24:22.739Z,99997.91
2022-08-20T04:25:36.344Z,100011.09
2022-08-20T04:26:39.261Z,99997.06
2022-08-20T04:27:42.564Z,99999.88
2022-08-20T04:28:44.753Z,100002.22
2022-08-20T04:29:47.120Z,99999.41
2022-08-20T04:30:51.917Z,99996.91
2022-08-20T04:31:55.954Z,100000.56
2022-08-20T04:32:59.679Z,100003.00
2022-08-20T04:34:02.450Z,100006.97
2022-08-20T04:35:07.684Z,100007.31
2022-08-20T04:36:10.777Z,99996.91
2022-08-20T04:37:17.185Z,100000.06
2022-08-20T04:38:26.428Z,100003.69
2022-08-20T04:40:10.170Z,100003.69
2022-08-20T04:41:22.593Z,100005.66
2022-08-20T04:42:26.310Z,100009.28
2022-08-20T04:43:31.235Z,100009.28
2022-08-20T04:44:33.423Z,100011.25
2022-08-20T04:45:35.663Z,100007.66
2022-08-20T04:46:41.280Z,100007.97
2022-08-20T04:47:43.555Z,100005.19
2022-08-20T04:48:48.479Z,100007.97
2022-08-20T04:49:51.434Z,100016.38
2022-08-20T04:51:01.695Z,100015.22
2022-08-20T04:52:06.178Z,100004.34
2022-08-20T04:53:10.911Z,100006.81
2022-08-20T04:54:14.881Z,100012.75
2022-08-20T04:55:17.713Z,100014.75
2022-08-20T04:56:24.460Z,100012.75
2022-08-20T04:57:26.804Z,100013.59
2022-08-20T04:58:35.059Z,100024.78
2022-08-20T04:59:37.280Z,100014.75
2022-08-20T05:00:39.829Z,100018.34
2022-08-20T05:01:42.135Z,100022.00
2022-08-20T05:02:44.818Z,100015.53
2022-08-20T05:03:49.625Z,100020.34
2022-08-20T05:04:51.922Z,100016.38
2022-08-20T05:05:54.424Z,100021.16
2022-08-20T05:06:56.600Z,100029.56
2022-08-20T05:07:59.036Z,100027.59
2022-08-20T05:09:01.530Z,100024.47
2022-08-20T05:10:05.639Z,100021.16
2022-08-20T05:11:35.813Z,100022.00
2022-08-20T05:12:31.840Z,100019.50
2022-08-20T05:13:34.061Z,100023.13
2022-08-20T05:14:36.339Z,100028.75
2022-08-20T05:15:39.258Z,100022.31
2022-08-20T05:16:41.518Z,100019.50
2022-08-20T05:17:44.557Z,100018.69
2022-08-20T05:18:50.541Z,100020.69
2022-08-20T05:19:54.905Z,100029.09
2022-08-20T05:21:02.862Z,100028.25
2022-08-20T05:22:05.047Z,100025.44
2022-08-20T05:23:12.443Z,100028.25
2022-08-20T05:24:15.009Z,100021.81
2022-08-20T05:25:17.474Z,100020.16
2022-08-20T05:26:20.548Z,100024.13
2022-08-20T05:27:27.255Z,100021.81
2022-08-20T05:28:32.970Z,100033.38
2022-08-20T05:29:39.134Z,100026.13
2022-08-20T05:30:43.595Z,100025.31
2022-08-20T05:31:45.810Z,100030.91
2022-08-20T05:32:49.403Z,100025.31
2022-08-20T05:33:51.714Z,100027.25
2022-08-20T05:34:54.932Z,100026.44
2022-08-20T05:35:58.707Z,100032.06
2022-08-20T05:37:04.354Z,100030.41
2022-08-20T05:38:13.059Z,100032.06
2022-08-20T05:39:16.310Z,100024.78
2022-08-20T05:40:18.605Z,100028.75
2022-08-20T05:41:29.110Z,100028.75
2022-08-20T05:42:32.226Z,100035.19
2022-08-20T05:43:34.438Z,100032.38
2022-08-20T05:44:38.257Z,100025.94
2022-08-20T05:45:42.711Z,100034.34
2022-08-20T05:46:47.436Z,100021.50
2022-08-20T05:47:54.245Z,100032.69
2022-08-20T05:49:01.959Z,100035.84
2022-08-20T05:50:06.028Z,100031.88
2022-08-20T05:51:11.022Z,100033.03
2022-08-20T05:52:15.448Z,100040.63
2022-08-20T05:53:19.149Z,100034.19
2022-08-20T05:54:22.088Z,100043.44
2022-08-20T05:55:24.444Z,100045.38
2022-08-20T05:56:30.742Z,100044.56
2022-08-20T05:57:34.407Z,100051.00
2022-08-20T05:58:37.272Z,100045.38
2022-08-20T05:59:39.828Z,100047.38
2022-08-20T06:00:42.038Z,100049.38
2022-08-20T06:01:44.325Z,100051.31
2022-08-20T06:03:05.068Z,100047.72
2022-08-20T06:04:27.016Z,100049.38
2022-08-20T06:05:31.776Z,100046.88
2022-08-20T06:06:46.002Z,100061.72
2022-08-20T06:07:50.819Z,100053.31
2022-08-20T06:08:56.982Z,100054.13
2022-08-20T06:10:00.536Z,100046.56
2022-08-20T06:11:03.662Z,100052.47
2022-08-20T06:12:08.494Z,100053.31
2022-08-20T06:13:14.053Z,100052.16
2022-08-20T06:14:17.160Z,100056.13
2022-08-20T06:15:21.196Z,100065.00
2022-08-20T06:16:29.059Z,100053.31
2022-08-20T06:17:36.409Z,100060.56
2022-08-20T06:18:41.939Z,100063.38
2022-08-20T06:19:47.222Z,100056.59
2022-08-20T06:20:50.587Z,100053.78
2022-08-20T06:21:53.214Z,100064.19
2022-08-20T06:22:56.249Z,100062.19
2022-08-20T06:24:01.456Z,100058.59
2022-08-20T06:25:07.463Z,100065.00
2022-08-20T06:26:09.755Z,100065.00
2022-08-20T06:27:15.137Z,100066.66
2022-08-20T06:28:20.179Z,100063.84
2022-08-20T06:29:22.425Z,100073.09
2022-08-20T06:30:25.877Z,100066.31
2022-08-20T06:31:28.534Z,100077.06
2022-08-20T06:32:32.772Z,100065.50
2022-08-20T06:33:35.236Z,100078.69
2022-08-20T06:34:37.452Z,100080.31
2022-08-20T06:35:39.856Z,100078.69
2022-08-20T06:36:42.089Z,100073.09
2022-08-20T06:37:44.299Z,100087.09
2022-08-20T06:38:46.924Z,100083.13
2022-08-20T06:39:53.143Z,100089.91
2022-08-20T06:40:56.114Z,100085.13
2022-08-20T06:41:58.857Z,100093.53
2022-08-20T06:43:01.738Z,100093.53
2022-08-20T06:44:06.656Z,100094.34
2022-08-20T06:45:11.406Z,100090.72
2022-08-20T06:46:14.711Z,100090.72
2022-08-20T06:47:19.362Z,100096.31
2022-08-20T06:48:21.552Z,100101.94
2022-08-20T06:49:23.744Z,100098.31
2022-08-20T06:50:31.328Z,100099.94
2022-08-20T06:51:34.592Z,100101.13
2022-08-20T06:52:52.274Z,100105.53
2022-08-20T06:53:56.583Z,100106.72
2022-08-20T06:54:58.998Z,100106.72
2022-08-20T06:56:02.163Z,100108.69
2022-08-20T06:57:04.651Z,100102.25
2022-08-20T06:58:32.742Z,100106.72
2022-08-20T06:59:33.310Z,100103.06
2022-08-20T07:00:37.363Z,100101.41
2022-08-20T07:01:39.760Z,100107.88
2022-08-20T07:02:42.201Z,100103.41
2022-08-20T07:03:54.499Z,100099.78
2022-08-20T07:05:00.339Z,100104.56
2022-08-20T07:06:02.622Z,100108.19
2022-08-20T07:07:04.954Z,100098.94
2022-08-20T07:08:12.339Z,100092.88
2022-08-20T07:09:14.631Z,100096.50
2022-08-20T07:10:21.443Z,100092.03
2022-08-20T07:11:27.760Z,100095.97
2022-08-20T07:12:30.776Z,100092.03
2022-08-20T07:13:33.040Z,100093.19
2022-08-20T07:14:35.980Z,100087.56
2022-08-20T07:15:39.129Z,100095.16
2022-08-20T07:16:42.167Z,100097.97
2022-08-20T07:17:50.367Z,100095.97
2022-08-20T07:18:52.670Z,100100.78
2022-08-20T07:19:54.868Z,100096.81
2022-08-20T07:20:58.265Z,100094.84
2022-08-20T07:22:00.460Z,100095.69
2022-08-20T07:23:08.450Z,100097.63
2022-08-20T07:24:10.643Z,100094.84
2022-08-20T07:25:16.229Z,100100.44
2022-08-20T07:26:18.614Z,100104.09
2022-08-20T07:27:22.697Z,100106.88
2022-08-20T07:28:28.819Z,100095.69
2022-08-20T07:29:51.229Z,100105.69
2022-08-20T07:31:15.742Z,100106.88
2022-08-20T07:32:37.204Z,100100.09
2022-08-20T07:33:44.707Z,100114.09
2022-08-20T07:34:47.040Z,100115.28
2022-08-20T07:35:50.548Z,100109.69
2022-08-20T07:36:52.713Z,100113.28
2022-08-20T07:37:57.257Z,100112.47
2022-08-20T07:38:59.542Z,100119.72
2022-08-20T07:40:13.241Z,100126.97
2022-08-20T07:41:15.651Z,100118.56
2022-08-20T07:42:18.339Z,100118.56
2022-08-20T07:43:23.318Z,100113.81
2022-08-20T07:44:29.150Z,100113.81
2022-08-20T07:45:34.364Z,100115.44
2022-08-20T07:46:36.734Z,100123.53
2022-08-20T07:47:42.440Z,100122.34
2022-08-20T07:48:47.097Z,100119.56
2022-08-20T07:49:49.273Z,100119.56
2022-08-20T07:50:52.636Z,100124.00
2022-08-20T07:51:58.257Z,100122.88
2022-08-20T07:53:00.691Z,100128.47
2022-08-20T07:54:10.407Z,100122.53
2022-08-20T07:55:15.564Z,100124.19
2022-08-20T07:56:21.586Z,100125.00
2022-08-20T07:57:23.780Z,100135.06
2022-08-20T07:58:27.672Z,100129.13
2022-08-20T07:59:35.840Z,100135.22
2022-08-20T08:00:38.688Z,100136.03
2022-08-20T08:01:40.965Z,100128.16
2022-08-20T08:02:43.349Z,100137.03
2022-08-20T08:03:49.601Z,100139.53
2022-08-20T08:04:52.557Z,100138.34
2022-08-20T08:05:55.779Z,100134.41
2022-08-20T08:07:00.247Z,100137.72
2022-08-20T08:08:07.159Z,100130.13
2022-08-20T08:09:14.249Z,100134.25
2022-08-20T08:10:20.215Z,100135.13
2022-08-20T08:11:22.684Z,100131.13
2022-08-20T08:12:29.049Z,100132.44
2022-08-20T08:13:35.905Z,100134.91
2022-08-20T08:14:39.912Z,100136.91
2022-08-20T08:15:46.781Z,100135.75
2022-08-20T08:16:49.673Z,100146.31
2022-08-20T08:17:55.540Z,100141.53
2022-08-20T08:18:58.565Z,100145.97
2022-08-20T08:20:01.439Z,100149.28
2022-08-20T08:21:05.689Z,100142.53
2022-08-20T08:22:14.356Z,100148.13
2022-08-20T08:23:24.680Z,100145.00
2022-08-20T08:24:34.587Z,100150.25
2022-08-20T08:25:36.994Z,100142.69
2022-08-20T08:26:39.453Z,100147.13
2022-08-20T08:27:41.959Z,100150.44
2022-08-20T08:28:44.580Z,100152.09
2022-08-20T08:29:47.182Z,100147.28
2022-08-20T08:30:49.744Z,100152.56
2022-08-20T08:31:51.960Z,100155.06
2022-08-20T08:33:13.138Z,100150.25
2022-08-20T08:34:15.392Z,100157.19
2022-08-20T08:35:17.871Z,100150.44
2022-08-20T08:36:20.095Z,100159.31
2022-08-20T08:37:22.372Z,100158.16
2022-08-20T08:38:25.994Z,100156.19
2022-08-20T08:39:31.754Z,100158.97
2022-08-20T08:40:37.529Z,100163.09
2022-08-20T08:41:49.984Z,100159.50
2022-08-20T08:42:58.580Z,100164.75
2022-08-20T08:44:08.317Z,100159.66
2022-08-20T08:45:13.230Z,100160.47
2022-08-20T08:46:18.928Z,100160.97
2022-08-20T08:47:31.927Z,100167.41
2022-08-20T08:48:37.617Z,100162.63
2022-08-20T08:49:40.164Z,100160.63
2022-08-20T08:50:52.900Z,100167.91
2022-08-20T08:52:05.101Z,100158.34
2022-08-20T08:53:15.572Z,100157.50
2022-08-20T08:54:22.145Z,100170.03
2022-08-20T08:55:27.550Z,100165.25
2022-08-20T08:56:30.914Z,100169.22
2022-08-20T08:57:33.874Z,100163.28
2022-08-20T08:58:36.641Z,100164.09
2022-08-20T08:59:48.566Z,100171.34
2022-08-20T09:01:13.786Z,100163.44
2022-08-20T09:02:38.899Z,100165.06
2022-08-20T09:03:44.848Z,100165.91
2022-08-20T09:04:47.527Z,100159.44
2022-08-20T09:05:53.265Z,100161.94
2022-08-20T09:06:55.539Z,100167.56
2022-08-20T09:07:59.390Z,100164.75
2022-08-20T09:09:04.155Z,100163.56
2022-08-20T09:10:08.628Z,100165.22
2022-08-20T09:11:10.891Z,100161.59
2022-08-20T09:12:19.124Z,100165.22
2022-08-20T09:13:23.999Z,100174.50
2022-08-20T09:14:26.180Z,100170.50
2022-08-20T09:15:28.357Z,100171.34
2022-08-20T09:16:45.722Z,100172.50
2022-08-20T09:17:53.827Z,100170.50
2022-08-20T09:18:56.036Z,100176.13
2022-08-20T09:19:58.245Z,100174.16
2022-08-20T09:21:00.547Z,100176.94
2022-08-20T09:22:14.126Z,100173.31
2022-08-20T09:23:16.442Z,100175.81
2022-08-20T09:24:18.874Z,100169.34
2022-08-20T09:25:21.748Z,100173.00
2022-08-20T09:26:23.921Z,100171.81
2022-08-20T09:27:32.215Z,100166.22
2022-08-20T09:28:37.163Z,100166.22
2022-08-20T09:29:39.941Z,100174.31
2022-08-20T09:30:42.280Z,100165.06
2022-08-20T09:31:46.521Z,100168.69
2022-08-20T09:32:48.784Z,100170.31
2022-08-20T09:33:52.054Z,100163.91
2022-08-20T09:34:56.580Z,100172.31
2022-08-20T09:35:58.788Z,100163.56
2022-08-20T09:37:01.134Z,100170.03
2022-08-20T09:38:03.510Z,100167.22
2022-08-20T09:39:05.738Z,100164.88
2022-08-20T09:40:09.438Z,100164.06
2022-08-20T09:41:11.674Z,100166.53
2022-08-20T09:42:17.178Z,100168.53
2022-08-20T09:43:19.483Z,100169.34
2022-08-20T09:44:21.725Z,100168.19
2022-08-20T09:45:24.306Z,100175.44
2022-08-20T09:46:27.231Z,100169.00
2022-08-20T09:47:29.835Z,100169.00
2022-08-20T09:48:32.350Z,100169.50
2022-08-20T09:49:36.897Z,100168.34
2022-08-20T09:50:46.189Z,100171.97
2022-08-20T09:51:48.492Z,100171.16
2022-08-20T09:52:53.652Z,100174.78
2022-08-20T09:53:56.050Z,100174.44
2022-08-20T09:55:04.217Z,100175.59
2022-08-20T09:56:06.719Z,100175.25
2022-08-20T09:57:09.861Z,100173.28
2022-08-20T09:58:35.161Z,100174.09
2022-08-20T09:59:37.684Z,100167.38
2022-08-20T10:00:40.577Z,100171.81
2022-08-20T10:01:42.886Z,100168.19
2022-08-20T10:02:45.328Z,100169.03
2022-08-20T10:03:51.199Z,100167.88
2022-08-20T10:04:53.575Z,100171.50
2022-08-20T10:05:55.759Z,100177.09
2022-08-20T10:06:58.004Z,100177.91
2022-08-20T10:08:00.267Z,100173.63
2022-08-20T10:09:03.397Z,100172.81
2022-08-20T10:10:09.163Z,100174.44
2022-08-20T10:11:11.712Z,100174.44
2022-08-20T10:12:14.192Z,100176.91
2022-08-20T10:13:16.416Z,100181.72
2022-08-20T10:14:18.686Z,100177.25
2022-08-20T10:15:20.991Z,100183.34
2022-08-20T10:16:23.188Z,100177.72
2022-08-20T10:17:25.414Z,100184.19
2022-08-20T10:18:27.608Z,100176.56
2022-08-20T10:19:31.316Z,100183.03
2022-08-20T10:20:35.702Z,100187.47
2022-08-20T10:21:38.986Z,100187.47
2022-08-20T10:22:42.295Z,100182.69
2022-08-20T10:23:44.552Z,100179.56
2022-08-20T10:24:46.768Z,100183.16
2022-08-20T10:25:48.996Z,100184.00
2022-08-20T10:26:54.488Z,100186.81
2022-08-20T10:27:57.068Z,100178.41
2022-08-20T10:28:59.394Z,100184.81
2022-08-20T10:30:02.283Z,100187.63
2022-08-20T10:31:08.625Z,100188.13
2022-08-20T10:32:14.805Z,100189.28
2022-08-20T10:33:17.136Z,100190.09
2022-08-20T10:34:19.623Z,100191.75
2022-08-20T10:35:21.966Z,100198.53
2022-08-20T10:36:24.178Z,100199.34
2022-08-20T10:37:26.858Z,100197.38
2022-08-20T10:38:29.055Z,100193.41
2022-08-20T10:39:31.535Z,100203.81
2022-08-20T10:40:33.908Z,100199.03
2022-08-20T10:41:41.028Z,100204.63
2022-08-20T10:42:43.917Z,100205.44
2022-08-20T10:43:46.364Z,100207.09
2022-08-20T10:44:48.783Z,100198.69
2022-08-20T10:45:51.275Z,100199.50
2022-08-20T10:46:53.602Z,100207.59
2022-08-20T10:48:01.009Z,100208.75
2022-08-20T10:49:03.411Z,100207.59
2022-08-20T10:50:09.052Z,100208.41
2022-08-20T10:51:11.346Z,100195.19
2022-08-20T10:52:14.049Z,100210.06
2022-08-20T10:53:17.263Z,100209.72
2022-08-20T10:54:19.531Z,100201.31
2022-08-20T10:55:21.779Z,100205.25
2022-08-20T10:56:24.093Z,100203.31
2022-08-20T10:57:28.916Z,100214.19
2022-08-20T10:58:39.249Z,100209.38
2022-08-20T10:59:44.029Z,100218.66
2022-08-20T11:00:47.137Z,100213.03
2022-08-20T11:01:49.427Z,100218.66
2022-08-20T11:02:52.043Z,100210.69
2022-08-20T11:03:54.253Z,100216.31
2022-08-20T11:04:56.963Z,100220.78
2022-08-20T11:06:01.792Z,100214.00
2022-08-20T11:07:55.439Z,100221.28
2022-08-20T11:08:57.048Z,100215.66
2022-08-20T11:09:59.465Z,100218.13
2022-08-20T11:11:02.206Z,100220.09
2022-08-20T11:12:04.820Z,100214.47
2022-08-20T11:13:08.437Z,100213.66
2022-08-20T11:14:10.646Z,100213.66
2022-08-20T11:15:13.729Z,100210.88
2022-08-20T11:16:15.953Z,100213.16
2022-08-20T11:17:23.666Z,100218.47
2022-08-20T11:18:26.093Z,100208.41
2022-08-20T11:19:28.684Z,100212.34
2022-08-20T11:20:32.441Z,100203.94
2022-08-20T11:21:34.643Z,100205.09
2022-08-20T11:22:37.253Z,100205.09
2022-08-20T11:23:39.534Z,100209.88
2022-08-20T11:24:42.029Z,100204.63
2022-08-20T11:25:48.448Z,100207.09
2022-08-20T11:26:53.340Z,100204.63
2022-08-20T11:27:57.072Z,100204.63
2022-08-20T11:28:59.384Z,100211.03
2022-08-20T11:30:02.879Z,100209.38
2022-08-20T11:31:05.187Z,100205.25
2022-08-20T11:32:07.425Z,100212.53
2022-08-20T11:33:09.806Z,100209.72
2022-08-20T11:34:12.852Z,100212.03
2022-08-20T11:35:41.065Z,100217.66
2022-08-20T11:36:38.207Z,100214.38
2022-08-20T11:37:40.678Z,100210.41
2022-08-20T11:38:43.160Z,100218.00
2022-08-20T11:39:45.588Z,100219.97
2022-08-20T11:40:47.898Z,100218.31
2022-08-20T11:41:55.454Z,100219.47
2022-08-20T11:43:14.115Z,100222.28
2022-08-20T11:44:20.121Z,100217.00
2022-08-20T11:45:23.595Z,100223.78
2022-08-20T11:46:28.631Z,100221.81
2022-08-20T11:47:33.806Z,100218.50
2022-08-20T11:48:38.610Z,100220.50
2022-08-20T11:49:40.799Z,100225.28
2022-08-20T11:50:42.997Z,100226.44
2022-08-20T11:51:49.637Z,100232.38
2022-08-20T11:52:52.472Z,100225.94
2022-08-20T11:53:54.893Z,100236.84
2022-08-20T11:54:59.857Z,100230.75
2022-08-20T11:56:02.162Z,100227.94
2022-08-20T11:57:06.610Z,100229.91
2022-08-20T11:58:09.842Z,100242.28
2022-08-20T11:59:12.070Z,100245.94
2022-08-20T12:00:33.151Z,100242.28
2022-08-20T12:01:36.047Z,100242.63
2022-08-20T12:02:38.377Z,100241.81
2022-08-20T12:03:40.689Z,100237.84
2022-08-20T12:04:42.878Z,100250.22
2022-08-20T12:05:46.350Z,100250.22
2022-08-20T12:06:48.607Z,100245.78
2022-08-20T12:07:50.777Z,100245.44
2022-08-20T12:08:52.964Z,100245.44
2022-08-20T12:09:56.000Z,100243.78
2022-08-20T12:11:00.101Z,100251.88
2022-08-20T12:12:06.016Z,100241.81
2022-08-20T12:13:08.749Z,100240.66
2022-08-20T12:14:10.921Z,100242.28
2022-08-20T12:15:13.119Z,100244.28
2022-08-20T12:16:16.046Z,100239.47
2022-08-20T12:17:24.234Z,100246.28
2022-08-20T12:18:27.080Z,100244.28
2022-08-20T12:19:29.396Z,100250.72
2022-08-20T12:20:31.647Z,100245.94
2022-08-20T12:21:33.917Z,100247.91
2022-08-20T12:22:36.581Z,100245.59
2022-08-20T12:23:38.865Z,100252.03
2022-08-20T12:24:41.052Z,100251.56
2022-08-20T12:25:46.616Z,100246.75
2022-08-20T12:26:48.769Z,100250.41